Time;durP1;ratioP1;P1;durP2;ratioP2;P2;SDS_P1;SDS_P2;PMS_P1;PMS_P2;Temp;Humidity;BMP_temperature;BMP_pressure;BME280_temperature;BME280_humidity;BME280_pressure;Samples;Min_cycle;Max_cycle;Signal;HPM_P1;HPM_P2
2024/01/08 00:00:56;;;;;;;1999.90;999.90;;;;;;;;;;4956401;28;20054;-86
2024/01/08 00:03:22;;;;;;;1999.90;999.90;;;;;;;;;;4957002;28;20078;-86
2024/01/08 00:05:50;;;;;;;1999.90;999.90;;;;;;;;;;4968890;28;20073;-86
2024/01/08 00:08:17;;;;;;;1999.90;999.90;;;;;;;;;;4966258;28;20044;-87
2024/01/08 00:10:43;;;;;;;1999.90;999.90;;;;;;;;;;4960747;28;20047;-86
2024/01/08 00:13:10;;;;;;;1999.90;999.90;;;;;;;;;;4961589;28;20061;-85
2024/01/08 00:15:36;;;;;;;1999.90;999.90;;;;;;;;;;4961719;28;20047;-86
2024/01/08 00:18:03;;;;;;;1999.90;999.90;;;;;;;;;;4967687;28;20059;-86
2024/01/08 00:20:30;;;;;;;1999.90;999.90;;;;;;;;;;4965619;28;20051;-86
2024/01/08 00:22:58;;;;;;;1999.90;999.90;;;;;;;;;;4969292;28;20053;-86
2024/01/08 00:25:25;;;;;;;1999.90;999.90;;;;;;;;;;4954229;28;20050;-87
2024/01/08 00:27:52;;;;;;;1999.90;999.90;;;;;;;;;;4955205;29;20047;-86
2024/01/08 00:30:18;;;;;;;1999.90;999.90;;;;;;;;;;4962524;28;20054;-86
2024/01/08 00:32:45;;;;;;;1999.90;999.90;;;;;;;;;;4973785;28;20095;-86
2024/01/08 00:35:12;;;;;;;1999.90;999.90;;;;;;;;;;4973445;28;20050;-86
2024/01/08 00:37:40;;;;;;;1999.90;999.90;;;;;;;;;;4966598;28;20046;-86
2024/01/08 00:40:10;;;;;;;1999.90;999.90;;;;;;;;;;4963668;28;20058;-86
2024/01/08 00:42:37;;;;;;;1999.90;999.90;;;;;;;;;;4971572;28;20057;-87
2024/01/08 00:45:03;;;;;;;1999.90;999.90;;;;;;;;;;4962870;28;20490;-86
2024/01/08 00:47:30;;;;;;;1999.90;999.90;;;;;;;;;;4968205;28;20051;-87
2024/01/08 00:49:56;;;;;;;1999.90;999.90;;;;;;;;;;4967739;28;20089;-90
2024/01/08 00:52:23;;;;;;;1999.90;999.90;;;;;;;;;;4964767;28;20053;-86
2024/01/08 00:54:49;;;;;;;1999.90;999.90;;;;;;;;;;4962975;28;20047;-87
2024/01/08 00:57:17;;;;;;;1999.90;999.90;;;;;;;;;;4961340;28;20055;-88
2024/01/08 00:59:44;;;;;;;1999.90;999.90;;;;;;;;;;4971504;28;20260;-87
2024/01/08 01:02:10;;;;;;;1999.90;999.90;;;;;;;;;;4971067;28;20050;-88
2024/01/08 01:04:37;;;;;;;1999.90;999.90;;;;;;;;;;4976734;28;20138;-86
2024/01/08 01:07:04;;;;;;;1999.90;999.90;;;;;;;;;;4967459;28;20143;-86
2024/01/08 01:09:30;;;;;;;1999.90;999.90;;;;;;;;;;4968149;28;20470;-87
2024/01/08 01:11:57;;;;;;;1999.90;999.90;;;;;;;;;;4960841;28;20147;-86
2024/01/08 01:14:25;;;;;;;1999.90;999.90;;;;;;;;;;4956935;28;20073;-86
2024/01/08 01:16:51;;;;;;;1999.90;999.90;;;;;;;;;;4965582;28;20050;-89
2024/01/08 01:19:18;;;;;;;1999.90;999.90;;;;;;;;;;4966950;28;20130;-86
2024/01/08 01:21:44;;;;;;;1999.90;999.90;;;;;;;;;;4971880;28;20058;-87
2024/01/08 01:24:11;;;;;;;1999.90;999.90;;;;;;;;;;4969708;28;20050;-85
2024/01/08 01:26:37;;;;;;;1999.90;999.90;;;;;;;;;;4975159;28;20051;-85
2024/01/08 01:29:04;;;;;;;1999.90;999.90;;;;;;;;;;4972930;28;20061;-86
2024/01/08 01:31:33;;;;;;;1999.90;999.90;;;;;;;;;;4971960;28;20138;-86
2024/01/08 01:34:00;;;;;;;1999.90;999.90;;;;;;;;;;4965502;28;20086;-87
2024/01/08 01:36:26;;;;;;;1999.90;999.90;;;;;;;;;;4971191;28;20134;-88
2024/01/08 01:38:53;;;;;;;1999.90;999.90;;;;;;;;;;4965266;28;20061;-86
2024/01/08 01:41:19;;;;;;;1999.90;999.90;;;;;;;;;;4969202;28;20145;-87
2024/01/08 01:43:46;;;;;;;1999.90;999.90;;;;;;;;;;4968662;28;20145;-86
2024/01/08 01:46:18;;;;;;;1999.90;999.90;;;;;;;;;;4967050;28;20059;-86
2024/01/08 01:48:46;;;;;;;1999.90;999.90;;;;;;;;;;4962985;28;20047;-87
2024/01/08 01:51:13;;;;;;;1999.90;999.90;;;;;;;;;;4961173;28;20051;-86
2024/01/08 01:53:40;;;;;;;1999.90;999.90;;;;;;;;;;4965063;28;20126;-89
2024/01/08 01:56:08;;;;;;;1999.90;999.90;;;;;;;;;;4964492;28;20059;-86
2024/01/08 01:58:35;;;;;;;1999.90;999.90;;;;;;;;;;4967005;28;20051;-86
2024/01/08 02:01:02;;;;;;;1999.90;999.90;;;;;;;;;;4961052;28;20051;-86
2024/01/08 02:03:29;;;;;;;1999.90;999.90;;;;;;;;;;4967312;28;20085;-86
2024/01/08 02:05:57;;;;;;;1999.90;999.90;;;;;;;;;;4969264;28;20055;-87
2024/01/08 02:08:24;;;;;;;1999.90;999.90;;;;;;;;;;4963764;28;20055;-86
2024/01/08 02:10:51;;;;;;;1999.90;999.90;;;;;;;;;;4970528;28;20049;-87
2024/01/08 02:13:18;;;;;;;1999.90;999.90;;;;;;;;;;4970041;28;20050;-87
2024/01/08 02:15:44;;;;;;;1999.90;999.90;;;;;;;;;;4959527;28;20055;-90
2024/01/08 02:18:11;;;;;;;1999.90;999.90;;;;;;;;;;4963766;28;20047;-87
2024/01/08 02:20:38;;;;;;;1999.90;999.90;;;;;;;;;;4964003;28;20061;-87
2024/01/08 02:23:05;;;;;;;1999.90;999.90;;;;;;;;;;4968155;28;20053;-86
2024/01/08 02:25:32;;;;;;;1999.90;999.90;;;;;;;;;;4963419;28;20441;-85
2024/01/08 02:27:59;;;;;;;1999.90;999.90;;;;;;;;;;4957509;28;20043;-88
2024/01/08 02:30:25;;;;;;;1999.90;999.90;;;;;;;;;;4964899;28;20501;-87
2024/01/08 02:32:52;;;;;;;1999.90;999.90;;;;;;;;;;4968037;28;20496;-87
2024/01/08 02:35:19;;;;;;;1999.90;999.90;;;;;;;;;;4973415;28;20055;-86
2024/01/08 02:37:45;;;;;;;1999.90;999.90;;;;;;;;;;4962343;28;20053;-87
2024/01/08 02:40:13;;;;;;;1999.90;999.90;;;;;;;;;;4960326;28;20058;-87
2024/01/08 02:42:41;;;;;;;1999.90;999.90;;;;;;;;;;4968241;28;20051;-88
2024/01/08 02:45:08;;;;;;;1999.90;999.90;;;;;;;;;;4953651;28;20049;-87
2024/01/08 02:47:37;;;;;;;1999.90;999.90;;;;;;;;;;4971781;28;20047;-89
2024/01/08 02:50:12;;;;;;;1999.90;999.90;;;;;;;;;;4963740;28;20061;-89
2024/01/08 02:52:39;;;;;;;1999.90;999.90;;;;;;;;;;4961044;28;20054;-87
2024/01/08 02:55:06;;;;;;;1999.90;999.90;;;;;;;;;;4961481;28;20066;-91
2024/01/08 02:57:34;;;;;;;1999.90;999.90;;;;;;;;;;4968323;28;20504;-87
2024/01/08 03:00:03;;;;;;;1999.90;999.90;;;;;;;;;;4968339;28;20077;-90
2024/01/08 03:02:30;;;;;;;1999.90;999.90;;;;;;;;;;4970703;28;20050;-88
2024/01/08 03:04:56;;;;;;;1999.90;999.90;;;;;;;;;;4972181;28;20065;-89
2024/01/08 03:07:23;;;;;;;1999.90;999.90;;;;;;;;;;4968185;28;20061;-87
2024/01/08 03:09:50;;;;;;;1999.90;999.90;;;;;;;;;;4967998;28;20486;-88
2024/01/08 03:12:17;;;;;;;1999.90;999.90;;;;;;;;;;4961513;28;20047;-87
2024/01/08 03:14:44;;;;;;;1999.90;999.90;;;;;;;;;;4966862;28;20043;-87
2024/01/08 03:17:11;;;;;;;1999.90;999.90;;;;;;;;;;4957460;28;20425;-89
2024/01/08 03:19:38;;;;;;;1999.90;999.90;;;;;;;;;;4967071;28;20046;-89
2024/01/08 03:22:05;;;;;;;1999.90;999.90;;;;;;;;;;4963927;28;20549;-89
2024/01/08 03:24:32;;;;;;;1999.90;999.90;;;;;;;;;;4960255;28;20051;-91
2024/01/08 03:26:59;;;;;;;1999.90;999.90;;;;;;;;;;4958691;28;20485;-88
2024/01/08 03:29:25;;;;;;;1999.90;999.90;;;;;;;;;;4964254;28;20066;-87
2024/01/08 03:31:53;;;;;;;1999.90;999.90;;;;;;;;;;4958879;28;20046;-88
2024/01/08 03:34:20;;;;;;;1999.90;999.90;;;;;;;;;;4964332;28;20157;-88
2024/01/08 03:36:46;;;;;;;1999.90;999.90;;;;;;;;;;4960232;28;20417;-89
2024/01/08 03:39:13;;;;;;;1999.90;999.90;;;;;;;;;;4963266;28;20106;-89
2024/01/08 03:41:40;;;;;;;1999.90;999.90;;;;;;;;;;4969107;28;20089;-88
2024/01/08 03:44:07;;;;;;;1999.90;999.90;;;;;;;;;;4970120;28;20058;-88
2024/01/08 03:46:34;;;;;;;1999.90;999.90;;;;;;;;;;4971523;28;20486;-89
2024/01/08 03:49:02;;;;;;;1999.90;999.90;;;;;;;;;;4962244;28;20058;-91
2024/01/08 03:51:28;;;;;;;1999.90;999.90;;;;;;;;;;4967002;28;20057;-89
2024/01/08 03:53:55;;;;;;;1999.90;999.90;;;;;;;;;;4967829;28;20058;-89
2024/01/08 03:56:21;;;;;;;1999.90;999.90;;;;;;;;;;4960271;28;20051;-90
2024/01/08 03:58:48;;;;;;;1999.90;999.90;;;;;;;;;;4966802;28;20057;-88
2024/01/08 04:01:14;;;;;;;1999.90;999.90;;;;;;;;;;4965559;28;20053;-90
2024/01/08 04:03:41;;;;;;;1999.90;999.90;;;;;;;;;;4968712;28;20054;-90
2024/01/08 04:06:09;;;;;;;1999.90;999.90;;;;;;;;;;4965576;28;20125;-90
2024/01/08 04:08:35;;;;;;;1999.90;999.90;;;;;;;;;;4963966;28;20478;-89
2024/01/08 04:11:02;;;;;;;1999.90;999.90;;;;;;;;;;4970441;28;20054;-88
2024/01/08 04:13:29;;;;;;;1999.90;999.90;;;;;;;;;;4968389;28;20121;-88
2024/01/08 04:15:55;;;;;;;1999.90;999.90;;;;;;;;;;4969168;28;20043;-90
2024/01/08 04:18:22;;;;;;;1999.90;999.90;;;;;;;;;;4962794;28;20053;-90
2024/01/08 04:20:48;;;;;;;1999.90;999.90;;;;;;;;;;4963142;28;20047;-90
2024/01/08 04:23:16;;;;;;;1999.90;999.90;;;;;;;;;;4966878;28;20085;-89
2024/01/08 04:25:43;;;;;;;1999.90;999.90;;;;;;;;;;4970972;28;20046;-87
2024/01/08 04:28:09;;;;;;;1999.90;999.90;;;;;;;;;;4972482;28;20057;-90
2024/01/08 04:30:36;;;;;;;1999.90;999.90;;;;;;;;;;4964604;28;20061;-90
2024/01/08 04:33:02;;;;;;;1999.90;999.90;;;;;;;;;;4970113;28;20055;-90
2024/01/08 04:35:29;;;;;;;1999.90;999.90;;;;;;;;;;4967865;28;20047;-89
2024/01/08 04:37:56;;;;;;;1999.90;999.90;;;;;;;;;;4965322;28;20058;-90
2024/01/08 04:40:23;;;;;;;1999.90;999.90;;;;;;;;;;4967928;28;20047;-90
2024/01/08 04:42:50;;;;;;;1999.90;999.90;;;;;;;;;;4967142;28;20051;-90
2024/01/08 04:45:17;;;;;;;1999.90;999.90;;;;;;;;;;4969890;28;20043;-91
2024/01/08 04:47:43;;;;;;;1999.90;999.90;;;;;;;;;;4972528;28;20069;-90
2024/01/08 04:50:10;;;;;;;1999.90;999.90;;;;;;;;;;4971656;28;20051;-89
2024/01/08 04:52:37;;;;;;;1999.90;999.90;;;;;;;;;;4961177;28;20047;-90
2024/01/08 04:55:04;;;;;;;1999.90;999.90;;;;;;;;;;4976306;28;20504;-90
2024/01/08 04:57:32;;;;;;;1999.90;999.90;;;;;;;;;;4977621;28;20410;-90
2024/01/08 04:59:58;;;;;;;1999.90;999.90;;;;;;;;;;4980201;28;20046;-89
2024/01/08 05:02:25;;;;;;;1999.90;999.90;;;;;;;;;;4975311;28;20055;-89
2024/01/08 05:04:51;;;;;;;1999.90;999.90;;;;;;;;;;4978134;28;20047;-92
2024/01/08 05:07:18;;;;;;;1999.90;999.90;;;;;;;;;;4975138;28;20128;-91
2024/01/08 05:09:44;;;;;;;1999.90;999.90;;;;;;;;;;4972870;28;20481;-90
2024/01/08 05:12:11;;;;;;;1999.90;999.90;;;;;;;;;;4978102;28;20500;-90
2024/01/08 05:14:39;;;;;;;1999.90;999.90;;;;;;;;;;4976074;28;20054;-91
2024/01/08 05:17:06;;;;;;;1999.90;999.90;;;;;;;;;;4975741;28;20050;-91
2024/01/08 05:19:44;;;;;;;1999.90;999.90;;;;;;;;;;4964277;28;20051;-90
2024/01/08 05:22:11;;;;;;;1999.90;999.90;;;;;;;;;;4973747;28;20057;-91
2024/01/08 05:24:37;;;;;;;1999.90;999.90;;;;;;;;;;4966686;28;20059;-90
2024/01/08 05:27:04;;;;;;;1999.90;999.90;;;;;;;;;;4969457;28;20050;-91
2024/01/08 05:29:31;;;;;;;1999.90;999.90;;;;;;;;;;4973412;28;20059;-90
2024/01/08 05:31:59;;;;;;;1999.90;999.90;;;;;;;;;;4972546;28;20048;-91
2024/01/08 05:34:25;;;;;;;1999.90;999.90;;;;;;;;;;4973419;28;20051;-91
2024/01/08 05:36:52;;;;;;;1999.90;999.90;;;;;;;;;;4976213;28;20054;-91
2024/01/08 05:39:19;;;;;;;1999.90;999.90;;;;;;;;;;4964710;28;20079;-92
2024/01/08 05:41:46;;;;;;;1999.90;999.90;;;;;;;;;;4968290;28;20110;-92
2024/01/08 05:44:13;;;;;;;1999.90;999.90;;;;;;;;;;4966521;28;20051;-91
2024/01/08 05:46:42;;;;;;;1999.90;999.90;;;;;;;;;;4976423;28;20073;-91
2024/01/08 05:49:11;;;;;;;1999.90;999.90;;;;;;;;;;4974175;28;20482;-91
2024/01/08 05:51:43;;;;;;;1999.90;999.90;;;;;;;;;;4976721;28;20419;-91
2024/01/08 05:54:10;;;;;;;1999.90;999.90;;;;;;;;;;4973665;28;20078;-91
2024/01/08 05:56:37;;;;;;;1999.90;999.90;;;;;;;;;;4970785;28;20095;-91
2024/01/08 05:59:04;;;;;;;1999.90;999.90;;;;;;;;;;4977950;28;20050;-92
2024/01/08 06:01:30;;;;;;;1999.90;999.90;;;;;;;;;;4978232;28;20046;-90
2024/01/08 06:03:57;;;;;;;1999.90;999.90;;;;;;;;;;4978852;28;20117;-93
2024/01/08 06:06:25;;;;;;;1999.90;999.90;;;;;;;;;;4972522;28;20057;-91
2024/01/08 06:08:52;;;;;;;1999.90;999.90;;;;;;;;;;4969117;28;20081;-93
2024/01/08 06:11:18;;;;;;;1999.90;999.90;;;;;;;;;;4977473;28;20053;-90
2024/01/08 06:13:45;;;;;;;1999.90;999.90;;;;;;;;;;4976710;28;20070;-94
2024/01/08 06:16:16;;;;;;;1999.90;999.90;;;;;;;;;;4970045;28;20133;-92
2024/01/08 06:18:44;;;;;;;1999.90;999.90;;;;;;;;;;4977071;28;20043;-93
2024/01/08 06:21:10;;;;;;;1999.90;999.90;;;;;;;;;;4976931;28;20493;-93
2024/01/08 06:23:38;;;;;;;1999.90;999.90;;;;;;;;;;4975443;28;20092;-92
2024/01/08 06:26:05;;;;;;;1999.90;999.90;;;;;;;;;;4968313;28;20047;-92
2024/01/08 06:28:32;;;;;;;1999.90;999.90;;;;;;;;;;4972582;28;20047;-93
2024/01/08 06:30:59;;;;;;;1999.90;999.90;;;;;;;;;;4973447;28;20051;-92
2024/01/08 06:33:27;;;;;;;1999.90;999.90;;;;;;;;;;4971599;28;20054;-92
2024/01/08 06:35:53;;;;;;;1999.90;999.90;;;;;;;;;;4973717;28;20066;-94
2024/01/08 06:38:20;;;;;;;1999.90;999.90;;;;;;;;;;4967631;28;20055;-93
2024/01/08 06:40:47;;;;;;;1999.90;999.90;;;;;;;;;;4967913;28;20053;-91
2024/01/08 06:43:14;;;;;;;1999.90;999.90;;;;;;;;;;4967087;28;20055;-94
2024/01/08 06:45:41;;;;;;;1999.90;999.90;;;;;;;;;;4973691;28;20139;-95
2024/01/08 06:48:07;;;;;;;1999.90;999.90;;;;;;;;;;4971274;28;20473;-92
2024/01/08 06:50:36;;;;;;;1999.90;999.90;;;;;;;;;;4975753;28;20059;-92
2024/01/08 06:53:03;;;;;;;1999.90;999.90;;;;;;;;;;4969165;28;20051;-92
2024/01/08 06:55:30;;;;;;;1999.90;999.90;;;;;;;;;;4970933;28;20071;-92
2024/01/08 06:57:58;;;;;;;1999.90;999.90;;;;;;;;;;4966271;28;20061;-93
2024/01/08 07:00:27;;;;;;;1999.90;999.90;;;;;;;;;;4962045;28;20504;-93
2024/01/08 07:02:53;;;;;;;1999.90;999.90;;;;;;;;;;4969050;28;20605;-92
2024/01/08 07:05:20;;;;;;;1999.90;999.90;;;;;;;;;;4966447;28;20047;-93
2024/01/08 07:07:46;;;;;;;1999.90;999.90;;;;;;;;;;4961128;28;20051;-93
2024/01/08 07:10:13;;;;;;;1999.90;999.90;;;;;;;;;;4963133;28;20057;-92
2024/01/08 07:12:39;;;;;;;1999.90;999.90;;;;;;;;;;4970757;28;20054;-92
2024/01/08 07:15:08;;;;;;;1999.90;999.90;;;;;;;;;;4964704;28;20055;-93
2024/01/08 07:17:35;;;;;;;1999.90;999.90;;;;;;;;;;4968724;28;20867;-91
2024/01/08 07:20:02;;;;;;;1999.90;999.90;;;;;;;;;;4964956;28;20051;-92
2024/01/08 07:22:29;;;;;;;1999.90;999.90;;;;;;;;;;4961785;28;20051;-92
2024/01/08 07:24:56;;;;;;;1999.90;999.90;;;;;;;;;;4970749;28;20059;-92
2024/01/08 07:27:23;;;;;;;1999.90;999.90;;;;;;;;;;4968807;28;20079;-93
2024/01/08 07:29:49;;;;;;;1999.90;999.90;;;;;;;;;;4970080;28;20510;-92
2024/01/08 07:32:18;;;;;;;1999.90;999.90;;;;;;;;;;4968679;28;20437;-92
2024/01/08 07:34:45;;;;;;;1999.90;999.90;;;;;;;;;;4967973;28;20130;-93
2024/01/08 07:37:11;;;;;;;1999.90;999.90;;;;;;;;;;4971630;28;20047;-92
2024/01/08 07:39:38;;;;;;;1999.90;999.90;;;;;;;;;;4964380;28;20055;-93
2024/01/08 07:42:05;;;;;;;1999.90;999.90;;;;;;;;;;4967889;28;20046;-92
2024/01/08 07:44:31;;;;;;;1999.90;999.90;;;;;;;;;;4966803;28;20053;-93
2024/01/08 07:46:58;;;;;;;1999.90;999.90;;;;;;;;;;4966590;28;20051;-94
2024/01/08 07:49:26;;;;;;;1999.90;999.90;;;;;;;;;;4968898;28;20487;-93
2024/01/08 07:51:52;;;;;;;1999.90;999.90;;;;;;;;;;4964548;28;20789;-93
2024/01/08 07:54:19;;;;;;;1999.90;999.90;;;;;;;;;;4968163;28;20058;-93
2024/01/08 07:56:47;;;;;;;1999.90;999.90;;;;;;;;;;4964716;28;20058;-92
2024/01/08 07:59:13;;;;;;;1999.90;999.90;;;;;;;;;;4966075;28;20051;-92
2024/01/08 08:01:40;;;;;;;1999.90;999.90;;;;;;;;;;4966276;28;20057;-93
2024/01/08 08:04:06;;;;;;;1999.90;999.90;;;;;;;;;;4970683;28;20074;-93
2024/01/08 08:06:34;;;;;;;1999.90;999.90;;;;;;;;;;4961798;28;20058;-94
2024/01/08 08:09:01;;;;;;;1999.90;999.90;;;;;;;;;;4966600;28;20055;-93
2024/01/08 08:11:28;;;;;;;1999.90;999.90;;;;;;;;;;4963885;28;20204;-92
2024/01/08 08:13:54;;;;;;;1999.90;999.90;;;;;;;;;;4960678;28;20055;-92
2024/01/08 08:16:21;;;;;;;1999.90;999.90;;;;;;;;;;4966630;28;20073;-93
2024/01/08 08:18:49;;;;;;;1999.90;999.90;;;;;;;;;;4969283;28;20050;-93
2024/01/08 08:21:17;;;;;;;1999.90;999.90;;;;;;;;;;4964787;28;20058;-93
2024/01/08 08:23:45;;;;;;;1999.90;999.90;;;;;;;;;;4974984;28;20118;-92
2024/01/08 08:26:11;;;;;;;1999.90;999.90;;;;;;;;;;4979409;28;20051;-90
2024/01/08 08:28:38;;;;;;;1999.90;999.90;;;;;;;;;;4980915;28;20117;-93
2024/01/08 08:31:04;;;;;;;1999.90;999.90;;;;;;;;;;4979352;28;20082;-91
2024/01/08 08:33:31;;;;;;;1999.90;999.90;;;;;;;;;;4987265;28;20114;-92
2024/01/08 08:35:58;;;;;;;1999.90;999.90;;;;;;;;;;4980778;28;20078;-92
2024/01/08 08:38:24;;;;;;;1999.90;999.90;;;;;;;;;;4967946;28;20130;-93
2024/01/08 08:40:52;;;;;;;1999.90;999.90;;;;;;;;;;4964800;28;20043;-94
2024/01/08 08:43:19;;;;;;;1999.90;999.90;;;;;;;;;;4965253;28;20043;-91
2024/01/08 08:45:45;;;;;;;1999.90;999.90;;;;;;;;;;4970932;28;20051;-92
2024/01/08 08:48:12;;;;;;;1999.90;999.90;;;;;;;;;;4967158;28;20050;-93
2024/01/08 08:50:44;;;;;;;1999.90;999.90;;;;;;;;;;4968120;28;20497;-95
2024/01/08 08:53:10;;;;;;;1999.90;999.90;;;;;;;;;;4961195;28;20047;-90
2024/01/08 08:55:37;;;;;;;1999.90;999.90;;;;;;;;;;4966159;28;20058;-93
2024/01/08 08:58:08;;;;;;;1999.90;999.90;;;;;;;;;;4967103;28;20051;-92
2024/01/08 09:00:38;;;;;;;1999.90;999.90;;;;;;;;;;4961401;28;20055;-94
2024/01/08 09:03:05;;;;;;;1999.90;999.90;;;;;;;;;;4964697;28;20039;-89
2024/01/08 09:05:32;;;;;;;1999.90;999.90;;;;;;;;;;4966554;28;20241;-93
2024/01/08 09:07:59;;;;;;;1999.90;999.90;;;;;;;;;;4964720;28;20083;-92
2024/01/08 09:10:26;;;;;;;1999.90;999.90;;;;;;;;;;4964439;28;20119;-93
2024/01/08 09:12:55;;;;;;;1999.90;999.90;;;;;;;;;;4959393;28;20087;-94
2024/01/08 09:15:23;;;;;;;1999.90;999.90;;;;;;;;;;4964882;28;20704;-93
2024/01/08 09:17:50;;;;;;;1999.90;999.90;;;;;;;;;;4966364;28;20428;-94
2024/01/08 09:20:17;;;;;;;1999.90;999.90;;;;;;;;;;4963658;28;20047;-92
2024/01/08 09:22:44;;;;;;;1999.90;999.90;;;;;;;;;;4967136;28;20473;-95
2024/01/08 09:25:10;;;;;;;1999.90;999.90;;;;;;;;;;4960399;28;20090;-95
2024/01/08 09:27:38;;;;;;;1999.90;999.90;;;;;;;;;;4963152;28;20044;-93
2024/01/08 09:30:06;;;;;;;1999.90;999.90;;;;;;;;;;4962839;28;20054;-93
2024/01/08 09:32:34;;;;;;;1999.90;999.90;;;;;;;;;;4969737;28;20150;-95
2024/01/08 09:35:01;;;;;;;1999.90;999.90;;;;;;;;;;4967651;28;20061;-92
2024/01/08 09:37:27;;;;;;;1999.90;999.90;;;;;;;;;;4964215;28;20069;-94
2024/01/08 09:39:54;;;;;;;1999.90;999.90;;;;;;;;;;4964236;28;20155;-94
2024/01/08 09:42:21;;;;;;;1999.90;999.90;;;;;;;;;;4971504;28;20059;-94
2024/01/08 09:44:51;;;;;;;1999.90;999.90;;;;;;;;;;4969449;28;20047;-94
2024/01/08 09:47:17;;;;;;;1999.90;999.90;;;;;;;;;;4966418;28;20051;-94
2024/01/08 09:49:49;;;;;;;1999.90;999.90;;;;;;;;;;4966606;28;20047;-95
2024/01/08 09:52:15;;;;;;;1999.90;999.90;;;;;;;;;;4970379;28;20085;-94
2024/01/08 09:54:43;;;;;;;1999.90;999.90;;;;;;;;;;4972638;28;20149;-95
2024/01/08 09:57:09;;;;;;;1999.90;999.90;;;;;;;;;;4970096;28;20077;-94
2024/01/08 09:59:36;;;;;;;1999.90;999.90;;;;;;;;;;4965698;28;20063;-93
2024/01/08 10:02:04;;;;;;;1999.90;999.90;;;;;;;;;;4975488;28;20043;-94
2024/01/08 10:04:31;;;;;;;1999.90;999.90;;;;;;;;;;4968189;28;20070;-95
2024/01/08 10:07:12;;;;;;;1999.90;999.90;;;;;;;;;;4971150;28;20063;-95
2024/01/08 10:09:39;;;;;;;1999.90;999.90;;;;;;;;;;4965998;28;20047;-94
2024/01/08 10:12:09;;;;;;;1999.90;999.90;;;;;;;;;;4966512;28;20537;-93
2024/01/08 10:14:37;;;;;;;1999.90;999.90;;;;;;;;;;4968371;28;20065;-94
2024/01/08 10:17:03;;;;;;;1999.90;999.90;;;;;;;;;;4971346;28;20098;-94
2024/01/08 10:19:30;;;;;;;1999.90;999.90;;;;;;;;;;4976236;28;20097;-95
2024/01/08 10:22:16;;;;;;;1999.90;999.90;;;;;;;;;;4974651;28;20172;-94
2024/01/08 10:24:44;;;;;;;1999.90;999.90;;;;;;;;;;4979114;28;20054;-95
2024/01/08 10:27:12;;;;;;;1999.90;999.90;;;;;;;;;;4972818;28;20051;-93
2024/01/08 10:29:40;;;;;;;1999.90;999.90;;;;;;;;;;4979596;28;20172;-94
2024/01/08 10:32:08;;;;;;;1999.90;999.90;;;;;;;;;;4973429;28;20159;-94
2024/01/08 10:34:37;;;;;;;1999.90;999.90;;;;;;;;;;4974802;28;20055;-96
2024/01/08 10:37:04;;;;;;;1999.90;999.90;;;;;;;;;;4980521;28;20057;-94
2024/01/08 10:39:35;;;;;;;1999.90;999.90;;;;;;;;;;4972018;28;20102;-93
2024/01/08 10:42:02;;;;;;;1999.90;999.90;;;;;;;;;;4980407;28;20047;-94
2024/01/08 10:44:29;;;;;;;1999.90;999.90;;;;;;;;;;4978519;28;20257;-95
2024/01/08 10:46:58;;;;;;;1999.90;999.90;;;;;;;;;;4967867;28;20106;-94
2024/01/08 10:49:31;;;;;;;1999.90;999.90;;;;;;;;;;4982887;28;20118;-92
2024/01/08 10:52:00;;;;;;;1999.90;999.90;;;;;;;;;;4978178;28;20055;-95
2024/01/08 10:54:39;;;;;;;1999.90;999.90;;;;;;;;;;4981205;28;20039;-94
2024/01/08 10:57:12;;;;;;;1999.90;999.90;;;;;;;;;;4982787;28;20041;-92
2024/01/08 11:00:08;;;;;;;1999.90;999.90;;;;;;;;;;4983317;28;20070;-93
2024/01/08 11:02:38;;;;;;;1999.90;999.90;;;;;;;;;;4963872;28;20082;-96
2024/01/08 11:05:13;;;;;;;1999.90;999.90;;;;;;;;;;4982544;28;20031;-95
2024/01/08 11:07:42;;;;;;;1999.90;999.90;;;;;;;;;;4979180;28;20055;-95
2024/01/08 11:10:11;;;;;;;1999.90;999.90;;;;;;;;;;4982858;28;20061;-94
2024/01/08 11:12:39;;;;;;;1999.90;999.90;;;;;;;;;;4978201;28;20366;-92
2024/01/08 11:15:07;;;;;;;1999.90;999.90;;;;;;;;;;4977965;28;20055;-94
2024/01/08 11:17:37;;;;;;;1999.90;999.90;;;;;;;;;;4977208;28;20093;-96
2024/01/08 11:20:07;;;;;;;1999.90;999.90;;;;;;;;;;4976425;28;20110;-95
2024/01/08 11:22:37;;;;;;;1999.90;999.90;;;;;;;;;;4962672;28;20043;-94
2024/01/08 11:25:07;;;;;;;1999.90;999.90;;;;;;;;;;4984912;28;20055;-95
2024/01/08 11:27:35;;;;;;;1999.90;999.90;;;;;;;;;;4983388;28;20637;-94
2024/01/08 11:30:02;;;;;;;1999.90;999.90;;;;;;;;;;5006042;23;20061;-87
2024/01/08 11:32:55;;;;;;;1999.90;999.90;;;;;;;;;;5006129;28;20057;-86
2024/01/08 11:35:26;;;;;;;1999.90;999.90;;;;;;;;;;5000300;28;20081;-87
2024/01/08 11:38:06;;;;;;;1999.90;999.90;;;;;;;;;;4983651;28;20046;-87
2024/01/08 11:40:33;;;;;;;1999.90;999.90;;;;;;;;;;4994090;28;20054;-86
2024/01/08 11:43:04;;;;;;;1999.90;999.90;;;;;;;;;;4968284;28;20049;-88
2024/01/08 11:45:31;;;;;;;1999.90;999.90;;;;;;;;;;5004134;28;20052;-88
2024/01/08 11:47:58;;;;;;;1999.90;999.90;;;;;;;;;;4982313;28;20050;-88
2024/01/08 11:50:25;;;;;;;1999.90;999.90;;;;;;;;;;5004034;28;20053;-87
2024/01/08 11:52:53;;;;;;;1999.90;999.90;;;;;;;;;;4979273;28;20125;-88
2024/01/08 11:55:22;;;;;;;1999.90;999.90;;;;;;;;;;5003291;28;20585;-88
2024/01/08 11:57:49;;;;;;;1999.90;999.90;;;;;;;;;;4982396;28;20065;-88
2024/01/08 12:00:19;;;;;;;1999.90;999.90;;;;;;;;;;5004340;28;20054;-86
2024/01/08 12:02:47;;;;;;;1999.90;999.90;;;;;;;;;;5007543;28;20093;-88
2024/01/08 12:05:14;;;;;;;1999.90;999.90;;;;;;;;;;5004301;28;20058;-88
2024/01/08 12:07:46;;;;;;;1999.90;999.90;;;;;;;;;;5011629;28;20046;-89
2024/01/08 12:10:13;;;;;;;1999.90;999.90;;;;;;;;;;5007354;28;20084;-86
2024/01/08 12:12:41;;;;;;;1999.90;999.90;;;;;;;;;;4999700;28;20053;-85
2024/01/08 12:15:09;;;;;;;1999.90;999.90;;;;;;;;;;4998223;28;20049;-86
2024/01/08 12:17:38;;;;;;;1999.90;999.90;;;;;;;;;;5008058;28;20569;-86
2024/01/08 12:20:11;;;;;;;1999.90;999.90;;;;;;;;;;5003309;28;20050;-85
2024/01/08 12:22:39;;;;;;;1999.90;999.90;;;;;;;;;;5003385;28;20053;-86
2024/01/08 12:25:08;;;;;;;1999.90;999.90;;;;;;;;;;5008763;28;20049;-86
2024/01/08 12:27:35;;;;;;;1999.90;999.90;;;;;;;;;;5004904;28;20054;-88
2024/01/08 12:30:03;;;;;;;1999.90;999.90;;;;;;;;;;5005369;28;20069;-87
2024/01/08 12:32:31;;;;;;;1999.90;999.90;;;;;;;;;;5000624;28;20117;-86
2024/01/08 12:35:03;;;;;;;1999.90;999.90;;;;;;;;;;5001305;28;20419;-83
2024/01/08 12:37:32;;;;;;;1999.90;999.90;;;;;;;;;;5004080;28;20048;-85
2024/01/08 12:39:59;;;;;;;1999.90;999.90;;;;;;;;;;5005289;28;20061;-85
2024/01/08 12:42:26;;;;;;;1999.90;999.90;;;;;;;;;;5006655;28;20053;-86
2024/01/08 12:44:54;;;;;;;1999.90;999.90;;;;;;;;;;5002266;28;20164;-87
2024/01/08 12:47:22;;;;;;;1999.90;999.90;;;;;;;;;;5001224;28;20066;-87
2024/01/08 12:49:49;;;;;;;1999.90;999.90;;;;;;;;;;4997782;28;20050;-85
2024/01/08 12:52:17;;;;;;;1999.90;999.90;;;;;;;;;;4997772;28;20105;-83
2024/01/08 12:54:44;;;;;;;1999.90;999.90;;;;;;;;;;4999888;28;20506;-81
2024/01/08 12:57:13;;;;;;;1999.90;999.90;;;;;;;;;;4981306;28;20097;-85
2024/01/08 12:59:51;;;;;;;1999.90;999.90;;;;;;;;;;4999408;28;20522;-83
2024/01/08 13:02:20;;;;;;;1999.90;999.90;;;;;;;;;;4998394;28;20458;-87
2024/01/08 13:04:46;;;;;;;1999.90;999.90;;;;;;;;;;4968690;28;20066;-88
2024/01/08 13:07:15;;;;;;;1999.90;999.90;;;;;;;;;;5004140;28;20089;-88
2024/01/08 13:09:43;;;;;;;1999.90;999.90;;;;;;;;;;5009642;28;20064;-87
2024/01/08 13:12:10;;;;;;;1999.90;999.90;;;;;;;;;;4988952;28;20066;-88
2024/01/08 13:14:37;;;;;;;1999.90;999.90;;;;;;;;;;4982959;28;20133;-89
2024/01/08 13:17:05;;;;;;;1999.90;999.90;;;;;;;;;;5008838;28;20081;-89
2024/01/08 13:19:35;;;;;;;1999.90;999.90;;;;;;;;;;5011505;28;20060;-89
2024/01/08 13:22:02;;;;;;;1999.90;999.90;;;;;;;;;;4998325;28;20108;-88
2024/01/08 13:24:29;;;;;;;1999.90;999.90;;;;;;;;;;5006262;28;20069;-88
2024/01/08 13:26:58;;;;;;;1999.90;999.90;;;;;;;;;;5009013;28;20060;-87
2024/01/08 13:29:25;;;;;;;1999.90;999.90;;;;;;;;;;5008986;28;20081;-88
2024/01/08 13:31:53;;;;;;;1999.90;999.90;;;;;;;;;;5000358;28;20054;-87
2024/01/08 13:34:19;;;;;;;1999.90;999.90;;;;;;;;;;5009813;28;20054;-88
2024/01/08 13:36:46;;;;;;;1999.90;999.90;;;;;;;;;;5003701;28;20049;-89
2024/01/08 13:39:14;;;;;;;1999.90;999.90;;;;;;;;;;5003295;28;20050;-87
2024/01/08 13:41:42;;;;;;;1999.90;999.90;;;;;;;;;;5004656;28;20092;-88
2024/01/08 13:44:10;;;;;;;1999.90;999.90;;;;;;;;;;5005129;28;20074;-87